createdAt,value
2023-01-21T00:00:03.942Z,30.15
2023-01-21T00:02:52.111Z,30.98
2023-01-21T00:05:40.339Z,29.75
2023-01-21T00:08:29.354Z,28.65
2023-01-21T00:11:18.991Z,28.77
2023-01-21T00:14:07.188Z,31.60
2023-01-21T00:16:55.387Z,27.58
2023-01-21T00:19:43.563Z,29.52
2023-01-21T00:22:31.759Z,27.30
2023-01-21T00:25:19.916Z,31.25
2023-01-21T00:28:09.396Z,34.35
2023-01-21T00:31:01.739Z,31.95
2023-01-21T00:33:50.294Z,30.27
2023-01-21T00:36:38.502Z,28.40
2023-01-21T00:39:26.760Z,29.75
2023-01-21T00:42:14.992Z,28.42
2023-01-21T00:45:05.014Z,27.80
2023-01-21T00:47:53.217Z,30.85
2023-01-21T00:50:41.408Z,27.55
2023-01-21T00:53:30.708Z,27.83
2023-01-21T00:56:18.896Z,28.73
2023-01-21T00:59:07.126Z,29.70
2023-01-21T01:01:57.026Z,26.67
2023-01-21T01:04:45.233Z,30.88
2023-01-21T01:07:33.431Z,28.83
2023-01-21T01:10:21.614Z,26.75
2023-01-21T01:13:09.829Z,27.05
2023-01-21T01:15:58.778Z,27.00
2023-01-21T01:18:48.982Z,26.02
2023-01-21T01:21:37.196Z,28.52
2023-01-21T01:24:25.424Z,29.05
2023-01-21T01:27:13.612Z,28.10
2023-01-21T01:30:01.765Z,27.75
2023-01-21T01:32:49.921Z,26.75
2023-01-21T01:35:39.483Z,26.17
2023-01-21T01:38:27.641Z,27.65
2023-01-21T01:41:18.393Z,26.17
2023-01-21T01:44:27.651Z,26.63
2023-01-21T01:47:16.566Z,25.30
2023-01-21T01:50:07.059Z,26.08
2023-01-21T01:52:57.798Z,26.30
2023-01-21T01:55:47.746Z,26.42
2023-01-21T01:58:36.038Z,26.17
2023-01-21T02:01:24.718Z,25.25
2023-01-21T02:04:18.314Z,26.33
2023-01-21T02:07:06.621Z,26.27
2023-01-21T02:09:56.592Z,26.00
2023-01-21T02:12:45.465Z,25.35
2023-01-21T02:15:41.915Z,23.40
2023-01-21T02:18:39.428Z,24.15
2023-01-21T02:21:51.089Z,23.73
2023-01-21T02:25:02.162Z,23.15
2023-01-21T02:27:58.281Z,22.30
2023-01-21T02:31:05.291Z,22.27
2023-01-21T02:34:09.136Z,23.20
2023-01-21T02:37:12.007Z,22.98
2023-01-21T02:40:11.470Z,23.00
2023-01-21T02:43:12.165Z,21.08
2023-01-21T02:46:06.044Z,15.50
2023-01-21T02:49:01.398Z,18.45
2023-01-21T02:51:50.719Z,21.17
2023-01-21T02:54:54.720Z,18.92
2023-01-21T02:57:47.593Z,19.38
2023-01-21T03:00:51.840Z,19.35
2023-01-21T03:04:05.202Z,19.33
2023-01-21T03:07:03.585Z,19.50
2023-01-21T03:09:52.001Z,18.17
2023-01-21T03:12:47.091Z,18.15
2023-01-21T03:15:56.904Z,18.83
2023-01-21T03:18:51.081Z,18.83
2023-01-21T03:21:41.593Z,18.58
2023-01-21T03:24:30.448Z,17.63
2023-01-21T03:27:23.274Z,18.75
2023-01-21T03:30:16.494Z,19.73
2023-01-21T03:33:06.018Z,17.98
2023-01-21T03:35:55.952Z,17.52
2023-01-21T03:38:50.928Z,17.98
2023-01-21T03:41:41.355Z,21.40
2023-01-21T03:44:29.554Z,19.27
2023-01-21T03:47:23.675Z,20.52
2023-01-21T03:50:17.116Z,19.02
2023-01-21T03:53:06.708Z,19.60
2023-01-21T03:55:56.199Z,20.23
2023-01-21T03:58:44.352Z,21.10
2023-01-21T04:01:32.521Z,19.70
2023-01-21T04:04:20.708Z,18.90
2023-01-21T04:07:08.875Z,20.15
2023-01-21T04:09:57.049Z,20.02
2023-01-21T04:12:46.540Z,17.95
2023-01-21T04:15:34.727Z,18.92
2023-01-21T04:18:22.903Z,19.08
2023-01-21T04:21:11.064Z,18.60
2023-01-21T04:23:59.243Z,18.55
2023-01-21T04:26:47.436Z,18.05
2023-01-21T04:29:37.367Z,16.73
2023-01-21T04:32:25.574Z,18.63
2023-01-21T04:35:13.782Z,18.48
2023-01-21T04:38:01.937Z,19.05
2023-01-21T04:40:50.139Z,18.98
2023-01-21T04:43:38.331Z,19.00
2023-01-21T04:46:27.900Z,19.95
2023-01-21T04:49:16.123Z,18.30
2023-01-21T04:52:04.429Z,17.88
2023-01-21T04:54:52.626Z,18.77
2023-01-21T04:57:40.847Z,18.27
2023-01-21T05:00:29.037Z,19.05
2023-01-21T05:03:18.572Z,17.00
2023-01-21T05:06:07.033Z,18.20
2023-01-21T05:08:55.264Z,17.20
2023-01-21T05:11:43.445Z,18.25
2023-01-21T05:14:32.636Z,17.48
2023-01-21T05:17:20.807Z,16.92
2023-01-21T05:20:11.897Z,16.83
2023-01-21T05:23:00.090Z,16.83
2023-01-21T05:25:50.039Z,16.75
2023-01-21T05:28:38.231Z,17.58
2023-01-21T05:31:26.476Z,17.27
2023-01-21T05:34:14.793Z,17.80
2023-01-21T05:37:04.525Z,18.50
2023-01-21T05:39:52.703Z,16.60
2023-01-21T05:42:40.993Z,17.27
2023-01-21T05:45:29.153Z,17.00
2023-01-21T05:48:17.326Z,18.45
2023-01-21T05:51:05.862Z,15.82
2023-01-21T05:53:55.693Z,16.83
2023-01-21T05:56:43.933Z,17.60
2023-01-21T05:59:32.137Z,17.10
2023-01-21T06:02:20.370Z,15.63
2023-01-21T06:05:09.084Z,15.85
2023-01-21T06:07:57.468Z,17.48
2023-01-21T06:10:47.242Z,16.50
2023-01-21T06:13:35.458Z,16.75
2023-01-21T06:16:23.660Z,16.05
2023-01-21T06:19:11.896Z,15.80
2023-01-21T06:22:00.128Z,15.98
2023-01-21T06:24:48.305Z,17.05
2023-01-21T06:27:38.399Z,19.77
2023-01-21T06:30:27.632Z,18.33
2023-01-21T06:33:15.828Z,17.60
2023-01-21T06:36:04.055Z,16.35
2023-01-21T06:38:52.283Z,14.73
2023-01-21T06:41:40.454Z,14.38
2023-01-21T06:44:30.153Z,15.25
2023-01-21T06:47:18.399Z,13.35
2023-01-21T06:50:07.452Z,13.82
2023-01-21T06:52:55.659Z,14.60
2023-01-21T06:55:43.898Z,13.30
2023-01-21T06:58:32.133Z,13.73
2023-01-21T07:01:21.710Z,13.48
2023-01-21T07:04:09.884Z,13.85
2023-01-21T07:06:58.080Z,12.98
2023-01-21T07:09:46.297Z,12.85
2023-01-21T07:12:34.518Z,14.30
2023-01-21T07:15:22.742Z,13.18
2023-01-21T07:18:12.304Z,13.98
2023-01-21T07:21:00.530Z,13.38
2023-01-21T07:23:48.746Z,14.48
2023-01-21T07:26:38.196Z,12.20
2023-01-21T07:29:27.987Z,11.27
2023-01-21T07:32:16.175Z,12.30
2023-01-21T07:35:06.361Z,12.90
2023-01-21T07:37:54.523Z,11.45
2023-01-21T07:40:42.676Z,11.43
2023-01-21T07:43:30.897Z,11.05
2023-01-21T07:46:19.780Z,11.43
2023-01-21T07:49:07.975Z,11.00
2023-01-21T07:51:59.105Z,12.65
2023-01-21T07:54:48.669Z,10.45
2023-01-21T07:57:36.911Z,10.82
2023-01-21T08:00:27.098Z,10.73
2023-01-21T08:03:15.310Z,11.05
2023-01-21T08:06:03.537Z,10.88
2023-01-21T08:08:53.248Z,10.90
2023-01-21T08:11:41.448Z,10.10
2023-01-21T08:14:29.606Z,10.85
2023-01-21T08:17:17.822Z,10.60
2023-01-21T08:20:07.120Z,10.30
2023-01-21T08:22:55.317Z,10.73
2023-01-21T08:25:45.053Z,10.90
2023-01-21T08:28:33.401Z,12.10
2023-01-21T08:31:21.823Z,11.30
2023-01-21T08:34:10.003Z,10.45
2023-01-21T08:36:58.191Z,10.10
2023-01-21T08:39:46.339Z,8.68
2023-01-21T08:42:35.960Z,9.75
2023-01-21T08:45:24.129Z,9.25
2023-01-21T08:48:12.317Z,9.88
2023-01-21T08:51:01.241Z,9.43
2023-01-21T08:53:50.984Z,9.95
2023-01-21T08:56:39.201Z,8.55
2023-01-21T08:59:30.118Z,8.93
2023-01-21T09:02:18.361Z,9.82
2023-01-21T09:05:07.663Z,10.45
2023-01-21T09:07:58.088Z,9.95
2023-01-21T09:11:05.395Z,10.00
2023-01-21T09:13:53.875Z,9.13
2023-01-21T09:16:43.550Z,8.88
2023-01-21T09:19:31.870Z,9.60
2023-01-21T09:22:20.043Z,8.55
2023-01-21T09:25:10.243Z,9.90
2023-01-21T09:27:58.442Z,9.38
2023-01-21T09:30:46.734Z,9.85
2023-01-21T09:33:38.457Z,10.00
2023-01-21T09:36:29.626Z,9.40
2023-01-21T09:39:17.886Z,9.77
2023-01-21T09:42:06.153Z,8.57
2023-01-21T09:44:57.581Z,9.25
2023-01-21T09:47:47.529Z,9.05
2023-01-21T09:50:40.559Z,8.85
2023-01-21T09:53:34.195Z,8.93
2023-01-21T09:56:29.133Z,9.15
2023-01-21T09:59:25.315Z,9.43
2023-01-21T10:02:24.578Z,8.57
2023-01-21T10:05:51.737Z,9.90
2023-01-21T10:08:55.078Z,9.23
2023-01-21T10:11:59.161Z,10.35
2023-01-21T10:15:00.438Z,10.52
2023-01-21T10:17:57.210Z,11.15
2023-01-21T10:20:51.814Z,11.15
2023-01-21T10:23:44.618Z,11.75
2023-01-21T10:26:35.896Z,11.98
2023-01-21T10:32:17.783Z,10.07
2023-01-21T10:35:17.110Z,10.45
2023-01-21T10:38:11.792Z,11.35
2023-01-21T10:41:09.641Z,10.63
2023-01-21T10:44:05.731Z,10.85
2023-01-21T10:47:01.735Z,11.55
2023-01-21T10:50:01.292Z,12.20
2023-01-21T10:52:54.023Z,11.38
2023-01-21T10:55:54.897Z,12.65
2023-01-21T10:58:50.280Z,12.43
2023-01-21T11:01:41.630Z,12.07
2023-01-21T11:04:30.174Z,12.70
2023-01-21T11:07:21.736Z,12.40
2023-01-21T11:10:15.558Z,12.70
2023-01-21T11:13:03.811Z,14.40
2023-01-21T11:15:55.899Z,13.60
2023-01-21T11:18:44.439Z,14.77
2023-01-21T11:21:32.940Z,14.07
2023-01-21T11:24:23.067Z,13.00
2023-01-21T11:27:20.237Z,13.10
2023-01-21T11:30:44.557Z,15.25
2023-01-21T11:33:39.484Z,14.70
2023-01-21T11:36:27.792Z,14.10
2023-01-21T11:39:16.189Z,13.05
2023-01-21T11:42:08.184Z,13.38
2023-01-21T11:45:01.297Z,15.68
2023-01-21T11:47:51.676Z,15.77
2023-01-21T11:50:41.298Z,13.80
2023-01-21T11:53:29.676Z,13.50
2023-01-21T11:56:18.277Z,12.32
2023-01-21T11:59:18.443Z,12.43
2023-01-21T12:02:11.796Z,12.45
2023-01-21T12:05:03.950Z,13.32
2023-01-21T12:07:53.725Z,12.75
2023-01-21T12:10:45.360Z,13.75
2023-01-21T12:13:42.239Z,12.43
2023-01-21T12:16:36.020Z,12.30
2023-01-21T12:19:42.459Z,11.60
2023-01-21T12:22:44.850Z,12.40
2023-01-21T12:25:43.445Z,13.35
2023-01-21T12:28:56.731Z,13.60
2023-01-21T12:31:49.836Z,13.40
2023-01-21T12:34:43.195Z,13.55
2023-01-21T12:37:36.882Z,15.23
2023-01-21T12:40:31.727Z,13.48
2023-01-21T12:43:26.642Z,13.13
2023-01-21T12:46:20.116Z,13.10
2023-01-21T12:49:15.457Z,14.13
2023-01-21T12:52:13.062Z,13.20
2023-01-21T12:55:07.636Z,13.80
2023-01-21T12:58:00.484Z,13.68
2023-01-21T13:00:52.300Z,14.07
2023-01-21T13:03:49.145Z,14.80
2023-01-21T13:06:53.478Z,12.82
2023-01-21T13:09:47.981Z,15.25
2023-01-21T13:12:38.214Z,14.80
2023-01-21T13:15:30.262Z,12.25
2023-01-21T13:18:24.490Z,12.05
2023-01-21T13:21:18.738Z,13.13
2023-01-21T13:24:16.093Z,11.65
2023-01-21T13:27:14.550Z,11.82
2023-01-21T13:30:10.963Z,12.05
2023-01-21T13:33:08.589Z,16.02
2023-01-21T13:36:08.649Z,12.63
2023-01-21T13:39:04.940Z,11.18
2023-01-21T13:42:03.535Z,12.07
2023-01-21T13:45:08.704Z,10.85
2023-01-21T13:48:16.391Z,10.70
2023-01-21T13:51:22.218Z,11.88
2023-01-21T13:54:40.516Z,10.30
2023-01-21T13:58:02.252Z,11.18
2023-01-21T14:00:54.370Z,10.80
2023-01-21T14:03:47.236Z,10.80
2023-01-21T14:06:43.740Z,9.90
2023-01-21T14:09:38.586Z,11.27
2023-01-21T14:12:46.429Z,11.30
2023-01-21T14:15:52.114Z,9.90
2023-01-21T14:19:00.000Z,10.68
2023-01-21T14:22:09.257Z,10.48
2023-01-21T14:25:11.662Z,9.65
2023-01-21T14:28:09.542Z,10.48
2023-01-21T14:31:03.381Z,9.88
2023-01-21T14:33:58.787Z,10.38
2023-01-21T14:36:57.030Z,10.35
2023-01-21T14:39:58.732Z,9.90
2023-01-21T14:42:49.323Z,9.75
2023-01-21T14:45:54.095Z,9.25
2023-01-21T14:48:43.255Z,9.70
2023-01-21T14:51:32.537Z,10.32
2023-01-21T14:54:26.190Z,11.13
2023-01-21T14:57:26.201Z,10.20
2023-01-21T15:00:23.428Z,11.45
2023-01-21T15:03:17.087Z,12.38
2023-01-21T15:06:09.830Z,16.08
2023-01-21T15:09:00.415Z,13.77
2023-01-21T15:11:53.466Z,12.15
2023-01-21T15:14:45.597Z,13.23
2023-01-21T15:18:03.912Z,14.18
2023-01-21T15:20:57.958Z,11.07
2023-01-21T15:23:50.462Z,11.80
2023-01-21T15:26:42.317Z,12.23
2023-01-21T15:29:36.672Z,11.63
2023-01-21T15:32:32.042Z,10.85
2023-01-21T15:35:25.775Z,11.68
2023-01-21T15:38:16.273Z,10.35
2023-01-21T15:41:12.720Z,10.93
2023-01-21T15:44:15.065Z,12.20
2023-01-21T15:47:12.897Z,10.82
2023-01-21T15:50:08.586Z,10.18
2023-01-21T15:53:11.148Z,9.38
2023-01-21T15:56:18.435Z,10.70
2023-01-21T15:59:23.404Z,10.05
2023-01-21T16:02:17.817Z,10.50
2023-01-21T16:05:21.481Z,15.32
2023-01-21T16:08:21.599Z,10.32
2023-01-21T16:11:27.000Z,12.52
2023-01-21T16:14:39.505Z,9.65
2023-01-21T16:17:40.136Z,11.57
2023-01-21T16:20:32.415Z,10.23
2023-01-21T16:23:23.719Z,9.35
2023-01-21T16:26:23.851Z,10.13
2023-01-21T16:29:15.088Z,9.93
2023-01-21T16:34:51.480Z,10.35
2023-01-21T16:37:43.930Z,10.07
2023-01-21T16:40:32.337Z,9.10
2023-01-21T16:43:26.187Z,9.35
2023-01-21T16:46:16.122Z,9.02
2023-01-21T16:49:08.006Z,8.15
2023-01-21T16:51:59.432Z,8.68
2023-01-21T16:54:51.138Z,7.63
2023-01-21T16:57:39.320Z,7.63
2023-01-21T17:00:29.721Z,7.57
2023-01-21T17:03:23.095Z,6.93
2023-01-21T17:06:14.900Z,6.90
2023-01-21T17:09:05.531Z,6.55
2023-01-21T17:11:56.442Z,6.38
2023-01-21T17:14:44.653Z,5.57
2023-01-21T17:17:36.554Z,5.07
2023-01-21T17:20:38.477Z,5.88
2023-01-21T17:23:29.797Z,5.50
2023-01-21T17:29:18.603Z,4.78
2023-01-21T17:32:08.892Z,5.55
2023-01-21T17:35:12.657Z,6.77
2023-01-21T17:38:02.140Z,5.43
2023-01-21T17:41:01.988Z,5.28
2023-01-21T17:43:52.293Z,5.80
2023-01-21T17:46:47.297Z,6.23
2023-01-21T17:49:35.546Z,5.55
2023-01-21T17:52:23.735Z,5.50
2023-01-21T17:55:13.558Z,5.60
2023-01-21T17:58:05.590Z,4.70
2023-01-21T18:00:53.763Z,5.30
2023-01-21T18:03:43.306Z,5.75
2023-01-21T18:06:33.842Z,5.18
2023-01-21T18:09:24.793Z,6.10
2023-01-21T18:12:13.010Z,5.82
2023-01-21T18:15:01.624Z,5.43
2023-01-21T18:17:54.234Z,6.30
2023-01-21T18:20:43.785Z,6.55
2023-01-21T18:23:32.361Z,6.32
2023-01-21T18:26:30.939Z,7.10
2023-01-21T18:29:19.499Z,6.22
2023-01-21T18:32:07.891Z,6.07
2023-01-21T18:34:56.107Z,6.93
2023-01-21T18:37:45.712Z,7.00
2023-01-21T18:40:33.972Z,6.55
2023-01-21T18:43:22.184Z,6.50
2023-01-21T18:46:13.278Z,6.07
2023-01-21T18:49:05.847Z,7.07
2023-01-21T18:51:54.077Z,7.35
2023-01-21T18:54:43.631Z,6.78
2023-01-21T18:57:31.827Z,6.80
2023-01-21T19:00:23.484Z,7.45
2023-01-21T19:03:14.470Z,7.45
2023-01-21T19:06:02.662Z,7.05
2023-01-21T19:08:50.873Z,7.10
2023-01-21T19:11:40.424Z,6.85
2023-01-21T19:14:28.582Z,7.22
2023-01-21T19:17:21.665Z,7.30
2023-01-21T19:20:17.381Z,8.88
2023-01-21T19:23:11.009Z,6.78
2023-01-21T19:25:59.584Z,7.18
2023-01-21T19:28:49.086Z,7.53
2023-01-21T19:31:37.388Z,7.40
2023-01-21T19:34:26.706Z,8.18
2023-01-21T19:37:16.571Z,9.20
2023-01-21T19:40:10.631Z,8.15
2023-01-21T19:42:58.862Z,9.88
2023-01-21T19:45:50.168Z,10.13
2023-01-21T19:51:28.000Z,7.90
2023-01-21T19:54:18.844Z,7.80
2023-01-21T19:57:10.489Z,8.02
2023-01-21T19:59:59.698Z,8.82
2023-01-21T20:02:49.315Z,10.02
2023-01-21T20:05:37.595Z,9.13
2023-01-21T20:08:28.568Z,9.10
2023-01-21T20:11:17.991Z,9.45
2023-01-21T20:14:06.155Z,8.85
2023-01-21T20:16:56.514Z,8.48
2023-01-21T20:19:46.038Z,7.78
2023-01-21T20:22:34.185Z,9.13
2023-01-21T20:25:24.509Z,9.13
2023-01-21T20:28:19.121Z,8.27
2023-01-21T20:31:08.381Z,8.07
2023-01-21T20:33:56.740Z,8.40
2023-01-21T20:36:48.916Z,8.88
2023-01-21T20:39:38.814Z,8.60
2023-01-21T20:42:27.384Z,7.90
2023-01-21T20:45:18.714Z,7.85
2023-01-21T20:48:07.501Z,8.52
2023-01-21T20:50:56.281Z,7.85
2023-01-21T20:53:45.770Z,7.82
2023-01-21T20:56:34.231Z,8.27
2023-01-21T20:59:22.676Z,9.00
2023-01-21T21:02:12.465Z,8.20
2023-01-21T21:05:01.023Z,8.35
2023-01-21T21:07:49.254Z,8.32
2023-01-21T21:10:38.924Z,8.30
2023-01-21T21:13:27.127Z,9.07
2023-01-21T21:16:20.613Z,7.50
2023-01-21T21:19:10.785Z,7.70
2023-01-21T21:21:58.960Z,7.45
2023-01-21T21:24:47.138Z,7.55
2023-01-21T21:27:36.625Z,7.32
2023-01-21T21:30:26.751Z,7.65
2023-01-21T21:33:18.476Z,7.82
2023-01-21T21:36:13.029Z,7.85
2023-01-21T21:39:01.278Z,7.22
2023-01-21T21:42:07.061Z,7.53
2023-01-21T21:44:56.571Z,7.43
2023-01-21T21:48:02.264Z,6.80
2023-01-21T21:50:56.534Z,6.75
2023-01-21T21:53:45.590Z,7.38
2023-01-21T21:56:33.744Z,6.55
2023-01-21T21:59:21.913Z,7.00
2023-01-21T22:02:12.698Z,6.97
2023-01-21T22:05:00.997Z,6.57
2023-01-21T22:07:49.197Z,6.47
2023-01-21T22:10:37.451Z,6.50
2023-01-21T22:13:25.718Z,6.55
2023-01-21T22:16:16.223Z,6.65
2023-01-21T22:19:05.769Z,6.80
2023-01-21T22:21:53.916Z,6.45
2023-01-21T22:24:44.024Z,6.80
2023-01-21T22:27:32.147Z,6.90
2023-01-21T22:30:20.348Z,6.18
2023-01-21T22:33:08.641Z,6.63
2023-01-21T22:35:58.175Z,6.90
2023-01-21T22:38:47.177Z,6.88
2023-01-21T22:41:35.498Z,6.47
2023-01-21T22:44:23.669Z,5.85
2023-01-21T22:47:11.935Z,7.30
2023-01-21T22:50:00.155Z,6.72
2023-01-21T22:52:49.654Z,6.82
2023-01-21T22:55:38.245Z,6.63
2023-01-21T22:58:27.822Z,6.10
2023-01-21T23:01:23.906Z,8.00
2023-01-21T23:04:12.272Z,7.10
2023-01-21T23:07:00.465Z,6.68
2023-01-21T23:09:50.472Z,7.32
2023-01-21T23:12:38.591Z,6.82
2023-01-21T23:15:26.920Z,6.53
2023-01-21T23:18:16.529Z,6.78
2023-01-21T23:21:07.864Z,6.68
2023-01-21T23:23:56.033Z,6.35
2023-01-21T23:26:45.540Z,6.22
2023-01-21T23:29:33.968Z,5.75
2023-01-21T23:32:22.231Z,6.25
2023-01-21T23:35:10.933Z,6.45
2023-01-21T23:37:59.182Z,7.10
2023-01-21T23:40:47.326Z,6.80
2023-01-21T23:43:37.195Z,6.88
2023-01-21T23:46:25.409Z,6.72
2023-01-21T23:49:14.679Z,7.15
2023-01-21T23:52:05.144Z,6.60
2023-01-21T23:54:53.646Z,5.07
2023-01-21T23:57:41.794Z,7.15
